Spencer, IN

2:17 AM EDT on July 02, 2015 (GMT -0400)
GosportINWX | | Change Station
CLOSE
Current Station
Personal Weather Station
Location: Gosport, IN
Elevation: 751 ft
Nearby Weather Stations
Active Advisory: Flood Warning

Elev 751 ft 39.30 °N, 86.70 °W | Updated 17 seconds ago

Overcast
Overcast
67.2 °F
Feels Like 67.2 °F
N
0.0
Wind Variable Wind from North
Gusts 0.0 mph

Today
High -- | Low -- °F
--% Chance of Precip.
Yesterday
High -- | Low -- °F
Precip. -- in
6:24 AM 9:17 PM
Full, 100% visible
Pressure 29.91 in
Visibility 6.0 miles
Clouds Scattered Clouds 700 ft
Mostly Cloudy 8000 ft
Dew Point 66 °F
Humidity 96%
Rainfall 0.00 in
Snow Depth Not available.
UV 0 out of 12
Pollen 3.50 out of 12
Air Quality Not available.
Flu Activity Not available.
SPECI KBMG 020613Z AUTO 18003KT 6SM BR SCT007 BKN080 21/21 A2991 RMK AO2 T02110206

More Conditions Fewer Conditions

Pressure 29.91 in
Visibility 6.0 miles
Clouds Scattered Clouds 700 ft
Mostly Cloudy 8000 ft
Dew Point 66 °F
Humidity 96%
Rainfall 0.00 in
Snow Depth Not available.
UV 0 out of 12
Pollen 3.50 out of 12
Air Quality Not available.
Flu Activity Not available.
SPECI KBMG 020613Z AUTO 18003KT 6SM BR SCT007 BKN080 21/21 A2991 RMK AO2 T02110206

More Conditions Fewer Conditions

10-Day Weather Forecast

×

Almanac

Astronomy

Jul. 02, 2015 Rise Set
Actual Time
Civil Twilight
Nautical Twilight
Astronomical Twilight
Moon
Length of Visible Light
Length of Day
Tomorrow will be .
, % of the Moon is Illuminated

Today's Extremes

State Highs State Lows

Community

WunderPhotos

Upload Photos

1,834,422 photos uploaded!

WunderBlogs® & News

Nearby

Air Quality

  Air Quality AQ Index Pollutant
Not available.

Snow Depth

Station Depth Elevation

Earthquake Activity

City Distance Mag. Time & Date
Minimum magnitude displayed is 2.5.

Coastal Water Temperatures

Place Temperature

Stations

Nearby Weather Stations

Station Location Temp. Windchill Dew Point Humidity Wind Precip. Elev Updated Type
                   
Flood Warning
Statement as of 12:02 PM EDT on July 01, 2015

The Flood Warning continues for
the White River at Spencer.
* Until Friday afternoon.
* At 11:30 am Wednesday the stage was 18.8 feet.
* Flood stage is 14.0 feet.
* Minor flooding is occurring and minor flooding is forecast.
* Forecast... the river will continue rising to near 18.9 feet by this
evening. The river will fall below flood stage Friday morning.
* At 19.0 feet... Road south of river gage begins to flood. Gosport
Road closes. Extensive agricultural flooding is in progress. Moon
Road in very rural northwest Monroe County is extensively flooded.


Lat... Lon 3936 8666 3933 8674 3913 8696 3911 8692
      3928 8675 3934 8665